createdAt,value
2022-07-27T00:01:30.334Z,0.43
2022-07-27T00:03:58.726Z,0.52
2022-07-27T00:06:25.958Z,0.51
2022-07-27T00:08:52.875Z,0.50
2022-07-27T00:11:19.788Z,0.53
2022-07-27T00:13:46.720Z,0.52
2022-07-27T00:16:17.220Z,0.48
2022-07-27T00:18:44.048Z,0.52
2022-07-27T00:21:13.602Z,0.54
2022-07-27T00:23:41.585Z,0.45
2022-07-27T00:26:08.429Z,0.47
2022-07-27T00:28:35.352Z,0.44
2022-07-27T00:31:02.539Z,0.47
2022-07-27T00:33:29.617Z,0.53
2022-07-27T00:35:56.798Z,0.42
2022-07-27T00:38:26.773Z,0.46
2022-07-27T00:40:53.821Z,0.39
2022-07-27T00:43:20.977Z,0.40
2022-07-27T00:45:48.835Z,0.52
2022-07-27T00:48:15.715Z,0.43
2022-07-27T00:50:46.121Z,0.37
2022-07-27T00:53:14.999Z,0.45
2022-07-27T00:55:45.644Z,0.46
2022-07-27T00:58:12.913Z,0.43
2022-07-27T01:00:40.962Z,0.38
2022-07-27T01:03:10.338Z,0.35
2022-07-27T01:05:43.141Z,0.42
2022-07-27T01:08:14.068Z,0.45
2022-07-27T01:10:43.118Z,0.38
2022-07-27T01:13:12.823Z,0.39
2022-07-27T01:15:43.328Z,0.75
2022-07-27T01:18:25.460Z,0.60
2022-07-27T01:20:53.080Z,0.60
2022-07-27T01:23:21.791Z,0.67
2022-07-27T01:25:53.483Z,0.59
2022-07-27T01:28:20.531Z,0.56
2022-07-27T01:30:47.894Z,0.57
2022-07-27T01:33:16.487Z,0.49
2022-07-27T01:35:44.461Z,0.72
2022-07-27T01:38:12.450Z,0.58
2022-07-27T01:40:41.191Z,0.52
2022-07-27T01:43:09.639Z,0.56
2022-07-27T01:45:36.908Z,0.58
2022-07-27T01:48:04.388Z,0.67
2022-07-27T01:50:31.663Z,0.78
2022-07-27T01:52:58.464Z,0.60
2022-07-27T01:55:25.343Z,0.77
2022-07-27T01:57:53.674Z,0.69
2022-07-27T02:00:20.571Z,0.72
2022-07-27T02:02:47.899Z,0.67
2022-07-27T02:05:16.338Z,0.73
2022-07-27T02:07:44.358Z,0.72
2022-07-27T02:10:13.183Z,0.67
2022-07-27T02:12:42.442Z,0.56
2022-07-27T02:15:15.463Z,0.49
2022-07-27T02:17:45.107Z,0.72
2022-07-27T02:20:13.652Z,0.69
2022-07-27T02:22:40.944Z,0.55
2022-07-27T02:25:09.190Z,0.54
2022-07-27T02:27:37.643Z,0.57
2022-07-27T02:30:05.566Z,0.59
2022-07-27T02:32:34.362Z,0.55
2022-07-27T02:35:01.593Z,0.48
2022-07-27T02:37:46.707Z,0.80
2022-07-27T02:40:14.148Z,0.68
2022-07-27T02:42:42.929Z,0.60
2022-07-27T02:45:11.082Z,0.48
2022-07-27T02:47:42.055Z,0.49
2022-07-27T02:50:11.831Z,0.45
2022-07-27T02:52:41.979Z,0.46
2022-07-27T02:55:11.204Z,0.60
2022-07-27T02:57:38.543Z,0.71
2022-07-27T03:00:07.449Z,0.81
2022-07-27T03:02:34.350Z,0.88
2022-07-27T03:05:08.832Z,0.95
2022-07-27T03:07:35.739Z,0.74
2022-07-27T03:10:06.767Z,0.70
2022-07-27T03:12:36.990Z,0.61
2022-07-27T03:15:06.394Z,0.51
2022-07-27T03:17:33.270Z,0.53
2022-07-27T03:20:01.990Z,0.53
2022-07-27T03:22:28.793Z,0.47
2022-07-27T03:24:57.036Z,0.44
2022-07-27T03:27:24.676Z,0.42
2022-07-27T03:29:55.264Z,0.41
2022-07-27T03:32:23.765Z,0.54
2022-07-27T03:34:51.112Z,0.79
2022-07-27T03:37:21.560Z,0.75
2022-07-27T03:39:48.792Z,0.68
2022-07-27T03:42:15.935Z,0.66
2022-07-27T03:44:42.913Z,0.95
2022-07-27T03:47:09.794Z,1.05
2022-07-27T03:49:37.264Z,1.30
2022-07-27T03:52:04.666Z,1.28
2022-07-27T03:54:32.946Z,1.31
2022-07-27T03:57:02.261Z,1.53
2022-07-27T03:59:30.590Z,1.33
2022-07-27T04:02:01.231Z,2.16
2022-07-27T04:04:28.317Z,2.35
2022-07-27T04:06:57.916Z,2.02
2022-07-27T04:09:25.283Z,1.94
2022-07-27T04:11:56.812Z,1.89
2022-07-27T04:14:25.835Z,1.88
2022-07-27T04:16:58.311Z,1.51
2022-07-27T04:19:26.263Z,1.53
2022-07-27T04:21:53.293Z,1.22
2022-07-27T04:24:20.355Z,1.26
2022-07-27T04:26:48.672Z,1.04
2022-07-27T04:29:20.799Z,1.22
2022-07-27T04:31:49.360Z,1.17
2022-07-27T04:34:16.417Z,1.62
2022-07-27T04:36:43.345Z,2.30
2022-07-27T04:39:13.257Z,2.26
2022-07-27T04:41:41.747Z,2.46
2022-07-27T04:44:09.636Z,2.11
2022-07-27T04:46:39.156Z,2.42
2022-07-27T04:49:06.300Z,2.47
2022-07-27T04:51:34.881Z,2.80
2022-07-27T04:54:03.183Z,2.85
2022-07-27T04:56:31.121Z,2.97
2022-07-27T04:59:00.824Z,2.99
2022-07-27T05:01:34.757Z,3.12
2022-07-27T05:04:03.862Z,3.04
2022-07-27T05:06:31.508Z,3.41
2022-07-27T05:08:58.392Z,3.51
2022-07-27T05:11:27.676Z,3.22
2022-07-27T05:13:54.465Z,3.22
2022-07-27T05:16:28.570Z,2.94
2022-07-27T05:18:56.667Z,3.01
2022-07-27T05:21:25.202Z,2.94
2022-07-27T05:23:52.413Z,3.05
2022-07-27T05:26:24.325Z,3.28
2022-07-27T05:28:52.339Z,3.10
2022-07-27T05:31:19.381Z,3.02
2022-07-27T05:33:49.799Z,2.79
2022-07-27T05:36:19.041Z,2.45
2022-07-27T05:38:47.728Z,2.31
2022-07-27T05:41:15.079Z,1.82
2022-07-27T05:43:41.927Z,1.52
2022-07-27T05:46:11.962Z,1.65
2022-07-27T05:48:40.580Z,1.82
2022-07-27T05:51:08.295Z,1.77
2022-07-27T05:53:37.773Z,2.12
2022-07-27T05:56:08.704Z,2.04
2022-07-27T05:58:38.621Z,2.00
2022-07-27T06:01:05.727Z,1.97
2022-07-27T06:03:35.745Z,1.80
2022-07-27T06:06:02.950Z,1.91
2022-07-27T06:08:29.990Z,1.81
2022-07-27T06:10:57.967Z,1.95
2022-07-27T06:13:28.572Z,1.96
2022-07-27T06:15:55.435Z,2.07
2022-07-27T06:18:27.964Z,2.06
2022-07-27T06:20:56.150Z,2.25
2022-07-27T06:23:25.796Z,2.30
2022-07-27T06:25:55.367Z,2.24
2022-07-27T06:28:23.897Z,2.04
2022-07-27T06:30:53.508Z,2.44
2022-07-27T06:33:21.223Z,2.25
2022-07-27T06:35:52.087Z,2.61
2022-07-27T06:38:20.881Z,2.37
2022-07-27T06:40:54.047Z,2.13
2022-07-27T06:43:29.355Z,2.20
2022-07-27T06:45:59.555Z,1.98
2022-07-27T06:48:27.114Z,1.99
2022-07-27T06:50:56.408Z,1.66
2022-07-27T06:53:23.762Z,1.55
2022-07-27T06:55:51.542Z,1.73
2022-07-27T06:58:19.924Z,1.70
2022-07-27T07:00:51.155Z,1.83
2022-07-27T07:03:20.230Z,1.53
2022-07-27T07:05:53.474Z,1.44
2022-07-27T07:08:21.972Z,1.47
2022-07-27T07:10:52.985Z,1.30
2022-07-27T07:13:21.116Z,1.67
2022-07-27T07:15:50.678Z,1.90
2022-07-27T07:18:25.485Z,1.62
2022-07-27T07:20:53.997Z,1.60
2022-07-27T07:23:22.920Z,1.36
2022-07-27T07:25:50.012Z,1.21
2022-07-27T07:28:19.686Z,1.02
2022-07-27T07:30:46.986Z,1.29
2022-07-27T07:33:15.342Z,1.36
2022-07-27T07:36:14.109Z,1.42
2022-07-27T07:38:34.376Z,1.64
2022-07-27T07:41:02.589Z,1.53
2022-07-27T07:43:31.759Z,1.40
2022-07-27T07:45:58.708Z,1.29
2022-07-27T07:48:28.400Z,1.47
2022-07-27T07:50:57.208Z,1.41
2022-07-27T07:53:25.296Z,1.49
2022-07-27T07:55:52.934Z,1.48
2022-07-27T07:58:21.075Z,1.33
2022-07-27T08:00:48.655Z,0.99
2022-07-27T08:03:18.329Z,0.82
2022-07-27T08:05:46.218Z,0.85
2022-07-27T08:08:24.861Z,0.72
2022-07-27T08:10:52.103Z,0.77
2022-07-27T08:13:22.444Z,0.69
2022-07-27T08:15:50.964Z,0.74
2022-07-27T08:18:19.135Z,0.78
2022-07-27T08:20:46.095Z,1.00
2022-07-27T08:23:15.156Z,0.98
2022-07-27T08:25:49.444Z,1.19
2022-07-27T08:28:16.661Z,1.50
2022-07-27T08:30:45.546Z,1.47
2022-07-27T08:33:14.597Z,1.23
2022-07-27T08:35:42.883Z,1.08
2022-07-27T08:38:10.394Z,1.18
2022-07-27T08:40:44.107Z,1.36
2022-07-27T08:43:24.762Z,1.31
2022-07-27T08:45:54.774Z,1.23
2022-07-27T08:48:22.831Z,1.34
2022-07-27T08:50:51.065Z,1.34
2022-07-27T08:53:21.343Z,1.29
2022-07-27T08:55:50.876Z,1.21
2022-07-27T08:58:19.917Z,1.27
2022-07-27T09:00:52.339Z,1.36
2022-07-27T09:03:22.519Z,1.42
2022-07-27T09:05:55.378Z,1.46
2022-07-27T09:08:26.320Z,1.41
2022-07-27T09:10:56.669Z,1.32
2022-07-27T09:13:31.677Z,1.38
2022-07-27T09:16:19.287Z,1.33
2022-07-27T09:18:47.549Z,1.32
2022-07-27T09:23:57.606Z,1.72
2022-07-27T09:26:34.686Z,2.16
2022-07-27T09:29:08.342Z,2.28
2022-07-27T09:31:43.683Z,2.32
2022-07-27T09:34:12.694Z,2.36
2022-07-27T09:36:55.601Z,2.08
2022-07-27T09:39:24.255Z,2.12
2022-07-27T09:41:56.119Z,2.35
2022-07-27T09:44:42.125Z,2.23
2022-07-27T09:47:22.184Z,1.98
2022-07-27T09:49:49.214Z,1.98
2022-07-27T09:52:24.380Z,1.69
2022-07-27T09:54:52.819Z,1.63
2022-07-27T09:57:22.020Z,1.84
2022-07-27T10:00:13.695Z,1.76
2022-07-27T10:02:42.951Z,1.76
2022-07-27T10:05:10.739Z,1.78
2022-07-27T10:07:41.561Z,1.55
2022-07-27T10:10:09.590Z,1.47
2022-07-27T10:12:41.989Z,1.39
2022-07-27T10:15:15.800Z,1.44
2022-07-27T10:17:49.496Z,1.37
2022-07-27T10:20:20.781Z,1.36
2022-07-27T10:22:54.020Z,1.33
2022-07-27T10:25:23.553Z,2.17
2022-07-27T10:28:09.402Z,1.96
2022-07-27T10:30:38.361Z,1.97
2022-07-27T10:33:14.181Z,1.99
2022-07-27T10:35:42.326Z,1.93
2022-07-27T10:38:13.038Z,1.84
2022-07-27T10:40:42.337Z,1.65
2022-07-27T10:43:20.022Z,1.62
2022-07-27T10:46:01.971Z,1.61
2022-07-27T10:48:41.497Z,1.58
2022-07-27T10:51:13.902Z,1.92
2022-07-27T10:54:09.760Z,2.33
2022-07-27T10:56:45.857Z,1.93
2022-07-27T10:59:12.884Z,1.87
2022-07-27T11:01:56.674Z,1.98
2022-07-27T11:04:25.364Z,2.04
2022-07-27T11:10:06.079Z,2.13
2022-07-27T11:12:35.048Z,1.81
2022-07-27T11:15:04.632Z,1.78
2022-07-27T11:18:00.432Z,2.01
2022-07-27T11:20:28.694Z,1.78
2022-07-27T11:25:57.173Z,1.54
2022-07-27T11:28:31.533Z,1.83
2022-07-27T11:30:59.085Z,1.59
2022-07-27T11:33:29.141Z,1.53
2022-07-27T11:36:01.491Z,1.50
2022-07-27T11:38:28.756Z,1.37
2022-07-27T11:41:16.913Z,1.49
2022-07-27T11:43:47.567Z,1.65
2022-07-27T11:46:18.439Z,1.54
2022-07-27T11:49:09.273Z,1.50
2022-07-27T11:51:39.416Z,1.44
2022-07-27T11:54:10.478Z,1.58
2022-07-27T11:56:39.497Z,1.87
2022-07-27T11:59:18.169Z,1.59
2022-07-27T12:01:49.005Z,1.31
2022-07-27T12:04:19.877Z,1.13
2022-07-27T12:06:49.672Z,1.03
2022-07-27T12:09:17.720Z,0.87
2022-07-27T12:11:55.525Z,1.00
2022-07-27T12:14:32.527Z,1.23
2022-07-27T12:17:14.660Z,1.55
2022-07-27T12:19:50.107Z,1.53
2022-07-27T12:22:24.605Z,1.38
2022-07-27T12:24:51.713Z,1.49
2022-07-27T12:27:21.382Z,1.94
2022-07-27T12:30:03.152Z,1.87
2022-07-27T12:32:34.642Z,1.79
2022-07-27T12:35:17.504Z,1.77
2022-07-27T12:37:48.454Z,2.00
2022-07-27T12:40:17.175Z,1.70
2022-07-27T12:42:47.012Z,1.88
2022-07-27T12:45:16.828Z,1.84
2022-07-27T12:47:44.292Z,1.82
2022-07-27T12:50:16.700Z,1.75
2022-07-27T12:52:46.749Z,1.66
2022-07-27T12:55:16.220Z,1.81
2022-07-27T12:57:55.631Z,1.79
2022-07-27T13:00:29.206Z,1.60
2022-07-27T13:03:00.759Z,1.37
2022-07-27T13:05:35.738Z,1.69
2022-07-27T13:08:03.595Z,1.68
2022-07-27T13:10:31.103Z,1.48
2022-07-27T13:12:58.750Z,1.40
2022-07-27T13:15:28.177Z,1.31
2022-07-27T13:17:55.479Z,1.41
2022-07-27T13:20:29.245Z,1.40
2022-07-27T13:22:58.478Z,1.48
2022-07-27T13:25:25.673Z,1.48
2022-07-27T13:27:52.718Z,1.95
2022-07-27T13:30:21.805Z,1.64
2022-07-27T13:32:49.088Z,1.58
2022-07-27T13:35:18.969Z,1.41
2022-07-27T13:37:46.232Z,1.13
2022-07-27T13:40:16.824Z,1.21
2022-07-27T13:42:44.072Z,1.10
2022-07-27T13:45:12.122Z,1.01
2022-07-27T13:47:41.687Z,1.23
2022-07-27T13:50:17.818Z,1.23
2022-07-27T13:52:48.090Z,1.51
2022-07-27T13:55:18.847Z,1.78
2022-07-27T13:57:46.768Z,1.68
2022-07-27T14:00:15.004Z,1.61
2022-07-27T14:02:44.061Z,1.33
2022-07-27T14:05:14.564Z,1.64
2022-07-27T14:07:47.450Z,1.47
2022-07-27T14:10:15.972Z,1.58
2022-07-27T14:12:44.988Z,1.65
2022-07-27T14:15:14.580Z,1.44
2022-07-27T14:17:41.558Z,1.51
2022-07-27T14:20:11.823Z,1.44
2022-07-27T14:22:38.978Z,1.52
2022-07-27T14:25:10.540Z,1.45
2022-07-27T14:27:39.168Z,1.51
2022-07-27T14:30:08.042Z,1.32
2022-07-27T14:32:35.690Z,1.45
2022-07-27T14:35:03.506Z,1.45
2022-07-27T14:37:32.803Z,1.53
2022-07-27T14:40:05.869Z,1.70
2022-07-27T14:42:33.183Z,1.55
2022-07-27T14:45:02.752Z,1.53
2022-07-27T14:47:32.167Z,1.62
2022-07-27T14:50:00.163Z,1.79
2022-07-27T14:52:30.030Z,1.81
2022-07-27T14:54:58.233Z,1.79
2022-07-27T14:57:26.311Z,1.82
2022-07-27T14:59:53.608Z,1.80
2022-07-27T15:02:22.189Z,1.74
2022-07-27T15:04:50.106Z,1.71
2022-07-27T15:07:19.802Z,1.63
2022-07-27T15:09:48.780Z,1.71
2022-07-27T15:12:16.763Z,1.67
2022-07-27T15:14:43.614Z,1.77
2022-07-27T15:17:10.423Z,1.59
2022-07-27T15:19:40.051Z,1.46
2022-07-27T15:22:06.923Z,1.19
2022-07-27T15:24:38.227Z,1.22
2022-07-27T15:27:11.375Z,1.17
2022-07-27T15:29:38.479Z,1.08
2022-07-27T15:32:06.975Z,0.94
2022-07-27T15:34:33.849Z,0.98
2022-07-27T15:37:04.365Z,0.89
2022-07-27T15:39:33.754Z,1.01
2022-07-27T15:42:03.289Z,1.04
2022-07-27T15:44:37.611Z,0.95
2022-07-27T15:47:04.671Z,0.74
2022-07-27T15:49:34.895Z,0.57
2022-07-27T15:52:02.311Z,0.54
2022-07-27T15:54:33.861Z,0.61
2022-07-27T15:57:03.066Z,0.61
2022-07-27T15:59:31.120Z,0.95
2022-07-27T16:02:00.618Z,1.12
2022-07-27T16:04:27.612Z,0.97
2022-07-27T16:06:54.629Z,0.90
2022-07-27T16:09:21.528Z,0.85
2022-07-27T16:11:51.076Z,0.87
2022-07-27T16:14:19.464Z,0.87
2022-07-27T16:16:46.614Z,0.67
2022-07-27T16:19:14.362Z,0.73
2022-07-27T16:21:54.909Z,0.97
2022-07-27T16:24:23.104Z,0.99
2022-07-27T16:26:54.544Z,1.00
2022-07-27T16:29:21.709Z,0.93
2022-07-27T16:31:49.160Z,0.96
2022-07-27T16:34:16.608Z,1.22
2022-07-27T16:36:43.565Z,0.95
2022-07-27T16:39:10.809Z,1.17
2022-07-27T16:41:38.979Z,1.31
2022-07-27T16:44:09.503Z,1.19
2022-07-27T16:46:37.218Z,1.10
2022-07-27T16:49:05.533Z,1.16
2022-07-27T16:51:32.398Z,1.19
2022-07-27T16:54:00.444Z,1.42
2022-07-27T16:56:27.317Z,1.28
2022-07-27T16:58:54.222Z,1.26
2022-07-27T17:01:26.715Z,1.33
2022-07-27T17:03:59.377Z,1.25
2022-07-27T17:06:26.733Z,1.13
2022-07-27T17:08:55.714Z,1.08
2022-07-27T17:11:23.546Z,1.18
2022-07-27T17:13:59.215Z,0.97
2022-07-27T17:16:28.332Z,0.87
2022-07-27T17:18:55.316Z,0.79
2022-07-27T17:21:25.474Z,0.61
2022-07-27T17:23:52.727Z,0.60
2022-07-27T17:26:22.830Z,0.56
2022-07-27T17:28:52.198Z,0.53
2022-07-27T17:31:19.705Z,0.51
2022-07-27T17:33:49.673Z,0.50
2022-07-27T17:36:16.570Z,0.44
2022-07-27T17:38:44.401Z,0.37
2022-07-27T17:41:12.515Z,0.32
2022-07-27T17:43:39.426Z,0.41
2022-07-27T17:46:07.140Z,0.41
2022-07-27T17:48:34.524Z,0.38
2022-07-27T17:51:05.127Z,0.39
2022-07-27T17:53:32.312Z,0.41
2022-07-27T17:55:59.208Z,0.40
2022-07-27T17:58:29.981Z,0.50
2022-07-27T18:00:58.104Z,0.44
2022-07-27T18:03:25.292Z,0.48
2022-07-27T18:05:57.574Z,0.48
2022-07-27T18:08:26.919Z,0.49
2022-07-27T18:10:54.239Z,0.47
2022-07-27T18:13:23.782Z,0.53
2022-07-27T18:16:07.471Z,0.53
2022-07-27T18:18:34.656Z,0.81
2022-07-27T18:21:01.990Z,0.84
2022-07-27T18:23:30.278Z,0.76
2022-07-27T18:25:57.214Z,0.67
2022-07-27T18:28:27.185Z,0.50
2022-07-27T18:30:54.483Z,0.44
2022-07-27T18:33:22.695Z,0.42
2022-07-27T18:35:49.641Z,0.44
2022-07-27T18:38:16.918Z,0.49
2022-07-27T18:40:47.395Z,0.62
2022-07-27T18:43:14.848Z,0.54
2022-07-27T18:45:41.844Z,0.50
2022-07-27T18:48:10.293Z,0.78
2022-07-27T18:50:39.632Z,0.69
2022-07-27T18:53:08.445Z,0.69
2022-07-27T18:55:36.263Z,0.60
2022-07-27T18:58:06.962Z,0.67
2022-07-27T19:00:35.036Z,0.67
2022-07-27T19:03:02.117Z,0.58
2022-07-27T19:05:41.397Z,0.50
2022-07-27T19:08:09.654Z,0.61
2022-07-27T19:10:37.670Z,0.48
2022-07-27T19:13:06.824Z,0.50
2022-07-27T19:15:33.836Z,0.41
2022-07-27T19:18:00.680Z,0.40
2022-07-27T19:20:27.795Z,0.30
2022-07-27T19:22:55.425Z,0.26
2022-07-27T19:25:26.705Z,0.18
2022-07-27T19:27:53.862Z,0.20
2022-07-27T19:30:25.353Z,0.21
2022-07-27T19:32:54.727Z,0.25
2022-07-27T19:35:22.807Z,0.18
2022-07-27T19:37:52.262Z,0.48
2022-07-27T19:43:06.812Z,0.30
2022-07-27T19:45:35.283Z,0.30
2022-07-27T19:48:04.171Z,0.29
2022-07-27T19:50:32.208Z,0.29
2022-07-27T19:52:59.203Z,0.39
2022-07-27T19:55:27.333Z,0.35
2022-07-27T19:57:54.405Z,0.33
2022-07-27T20:00:21.732Z,0.31
2022-07-27T20:02:50.029Z,0.27
2022-07-27T20:05:17.327Z,0.29
2022-07-27T20:07:45.999Z,0.34
2022-07-27T20:10:14.150Z,0.32
2022-07-27T20:12:41.345Z,0.31
2022-07-27T20:15:09.077Z,0.31
2022-07-27T20:17:37.069Z,0.30
2022-07-27T20:20:07.091Z,0.25
2022-07-27T20:22:35.460Z,0.28
2022-07-27T20:25:04.865Z,0.33
2022-07-27T20:27:32.417Z,0.27
2022-07-27T20:29:59.490Z,0.27
2022-07-27T20:32:26.652Z,0.24
2022-07-27T20:34:53.497Z,0.22
2022-07-27T20:37:24.309Z,0.26
2022-07-27T20:39:51.152Z,0.28
2022-07-27T20:42:18.153Z,0.24
2022-07-27T20:44:45.359Z,0.22
2022-07-27T20:47:12.311Z,0.21
2022-07-27T20:49:41.036Z,0.25
2022-07-27T20:52:10.121Z,0.28
2022-07-27T20:54:40.570Z,0.49
2022-07-27T20:57:07.479Z,0.40
2022-07-27T20:59:37.521Z,0.46
2022-07-27T21:02:05.726Z,0.42
2022-07-27T21:04:33.785Z,0.37
2022-07-27T21:07:02.219Z,0.39
2022-07-27T21:09:30.611Z,0.39
2022-07-27T21:12:01.303Z,0.49
2022-07-27T21:14:28.253Z,0.47
2022-07-27T21:16:55.170Z,0.44
2022-07-27T21:19:23.618Z,0.49
2022-07-27T21:21:50.665Z,0.59
2022-07-27T21:24:18.550Z,0.68
2022-07-27T21:26:48.730Z,0.72
2022-07-27T21:29:18.522Z,0.59
2022-07-27T21:31:46.533Z,0.61
2022-07-27T21:34:27.301Z,0.71
2022-07-27T21:36:54.458Z,0.85
2022-07-27T21:39:24.580Z,1.25
2022-07-27T21:41:51.488Z,1.14
2022-07-27T21:44:19.959Z,1.16
2022-07-27T21:46:46.959Z,1.05
2022-07-27T21:49:14.010Z,0.91
2022-07-27T21:51:41.110Z,0.79
2022-07-27T21:54:08.064Z,0.88
2022-07-27T21:56:41.688Z,0.88
2022-07-27T21:59:09.748Z,0.98
2022-07-27T22:01:38.201Z,0.85
2022-07-27T22:04:09.328Z,0.71
2022-07-27T22:06:37.977Z,0.65
2022-07-27T22:09:07.714Z,0.68
2022-07-27T22:11:45.400Z,0.80
2022-07-27T22:14:14.996Z,0.84
2022-07-27T22:16:45.155Z,0.82
2022-07-27T22:19:13.024Z,0.74
2022-07-27T22:21:41.440Z,0.77
2022-07-27T22:24:11.953Z,0.67
2022-07-27T22:26:40.497Z,0.60
2022-07-27T22:29:07.298Z,0.55
2022-07-27T22:31:34.345Z,0.67
2022-07-27T22:34:05.967Z,0.64
2022-07-27T22:36:33.669Z,0.69
2022-07-27T22:39:00.951Z,0.56
2022-07-27T22:41:29.275Z,0.53
2022-07-27T22:43:59.189Z,0.52
2022-07-27T22:46:30.023Z,0.57
2022-07-27T22:48:58.357Z,0.58
2022-07-27T22:51:49.835Z,0.70
2022-07-27T22:54:18.962Z,0.60
2022-07-27T22:56:46.764Z,0.60
2022-07-27T22:59:15.146Z,0.62
2022-07-27T23:01:47.412Z,0.56
2022-07-27T23:04:17.957Z,0.55
2022-07-27T23:06:49.211Z,0.63
2022-07-27T23:09:16.970Z,0.63
2022-07-27T23:11:45.018Z,0.57
2022-07-27T23:14:17.420Z,1.07
2022-07-27T23:16:46.737Z,0.97
2022-07-27T23:19:14.964Z,0.94
2022-07-27T23:21:42.319Z,1.08
2022-07-27T23:24:13.592Z,1.03
2022-07-27T23:26:41.408Z,0.77
2022-07-27T23:29:08.874Z,0.62
2022-07-27T23:31:36.094Z,0.80
2022-07-27T23:34:05.401Z,0.71
2022-07-27T23:36:33.520Z,0.56
2022-07-27T23:39:01.083Z,0.63
2022-07-27T23:41:31.379Z,0.64
2022-07-27T23:43:58.615Z,0.59
2022-07-27T23:46:28.987Z,0.53
2022-07-27T23:48:56.166Z,0.72
2022-07-27T23:51:23.143Z,0.67
2022-07-27T23:53:49.946Z,0.55
2022-07-27T23:56:16.915Z,0.55
2022-07-27T23:58:45.161Z,0.57
